createdAt,value
2022-09-05T00:02:52.747Z,79.10
2022-09-05T00:06:01.783Z,79.49
2022-09-05T00:09:00.869Z,80.50
2022-09-05T00:11:52.013Z,86.55
2022-09-05T00:15:18.928Z,85.01
2022-09-05T00:19:22.897Z,82.21
2022-09-05T00:24:26.249Z,82.27
2022-09-05T00:25:30.341Z,80.89
2022-09-05T00:28:41.167Z,80.17
2022-09-05T00:31:58.282Z,82.92
2022-09-05T00:35:19.436Z,81.47
2022-09-05T00:38:18.512Z,79.00
2022-09-05T00:41:08.651Z,79.42
2022-09-05T00:43:56.715Z,79.75
2022-09-05T00:46:47.672Z,80.53
2022-09-05T00:49:42.826Z,81.12
2022-09-05T00:52:41.474Z,81.23
2022-09-05T00:55:27.611Z,80.99
2022-09-05T00:58:35.137Z,80.63
2022-09-05T01:01:31.757Z,79.74
2022-09-05T01:04:32.712Z,79.45
2022-09-05T01:07:49.848Z,80.44
2022-09-05T01:10:58.263Z,80.01
2022-09-05T01:13:52.504Z,79.57
2022-09-05T01:16:45.216Z,80.05
2022-09-05T01:19:40.755Z,78.85
2022-09-05T01:22:51.366Z,78.92
2022-09-05T01:26:12.154Z,80.27
2022-09-05T01:29:18.566Z,79.10
2022-09-05T01:32:30.207Z,78.98
2022-09-05T01:36:03.399Z,79.07
2022-09-05T01:39:36.621Z,81.68
2022-09-05T01:42:31.726Z,86.25
2022-09-05T01:45:32.230Z,85.79
2022-09-05T01:48:47.714Z,82.99
2022-09-05T01:51:52.235Z,83.11
2022-09-05T01:55:00.629Z,84.27
2022-09-05T01:57:53.366Z,84.20
2022-09-05T02:00:44.481Z,81.44
2022-09-05T02:03:44.313Z,80.20
2022-09-05T02:06:51.838Z,80.82
2022-09-05T02:10:07.418Z,78.93
2022-09-05T02:13:13.020Z,77.97
2022-09-05T02:16:08.718Z,78.79
2022-09-05T02:18:57.778Z,81.21
2022-09-05T02:22:06.079Z,81.97
2022-09-05T02:26:00.761Z,80.70
2022-09-05T02:28:17.005Z,84.45
2022-09-05T02:31:19.460Z,89.20
2022-09-05T02:34:15.676Z,87.42
2022-09-05T02:37:16.308Z,92.86
2022-09-05T02:45:08.419Z,89.83
2022-09-05T02:45:21.236Z,88.37
2022-09-05T02:47:22.608Z,89.50
2022-09-05T02:57:27.403Z,87.28
2022-09-05T02:57:41.946Z,83.87
2022-09-05T02:57:42.665Z,100.00
2022-09-05T03:00:06.010Z,100.00
2022-09-05T03:02:58.306Z,100.00
2022-09-05T03:06:01.087Z,100.00
2022-09-05T03:09:25.217Z,100.00
2022-09-05T03:12:44.932Z,99.91
2022-09-05T03:15:49.812Z,96.84
2022-09-05T03:18:58.326Z,96.04
2022-09-05T03:22:22.776Z,95.04
2022-09-05T03:25:24.685Z,92.84
2022-09-05T03:28:10.956Z,92.54
2022-09-05T03:31:22.100Z,91.28
2022-09-05T03:34:48.140Z,90.75
2022-09-05T03:38:10.377Z,91.85
2022-09-05T03:40:59.273Z,91.35
2022-09-05T03:44:00.794Z,93.66
2022-09-05T03:47:02.134Z,93.31
2022-09-05T03:53:51.022Z,93.18
2022-09-05T03:57:15.449Z,92.88
2022-09-05T03:57:16.677Z,92.90
2022-09-05T04:00:20.951Z,95.32
2022-09-05T04:08:16.944Z,96.24
2022-09-05T04:08:18.375Z,99.05
2022-09-05T04:10:05.570Z,100.00
2022-09-05T04:13:00.876Z,98.33
2022-09-05T04:16:00.463Z,98.45
2022-09-05T04:18:56.079Z,97.54
2022-09-05T04:21:50.025Z,94.22
2022-09-05T04:25:13.951Z,91.70
2022-09-05T04:28:28.475Z,89.69
2022-09-05T04:31:17.704Z,89.21
2022-09-05T04:34:36.288Z,90.34
2022-09-05T04:37:47.998Z,89.66
2022-09-05T04:40:46.943Z,91.13
2022-09-05T04:43:42.394Z,89.81
2022-09-05T04:46:32.904Z,91.04
2022-09-05T04:49:39.985Z,90.36
2022-09-05T04:52:49.483Z,90.29
2022-09-05T04:55:50.864Z,89.53
2022-09-05T05:00:24.418Z,90.34
2022-09-05T05:06:13.103Z,89.63
2022-09-05T05:06:15.943Z,89.37
2022-09-05T05:08:38.354Z,89.33
2022-09-05T05:16:38.364Z,89.54
2022-09-05T05:18:12.790Z,90.62
2022-09-05T05:18:40.967Z,89.60
2022-09-05T05:21:30.573Z,89.51
2022-09-05T05:24:22.106Z,89.21
2022-09-05T05:27:18.208Z,91.07
2022-09-05T05:30:07.865Z,97.62
2022-09-05T05:32:54.965Z,93.26
2022-09-05T05:35:48.292Z,92.66
2022-09-05T05:38:46.195Z,92.13
2022-09-05T05:41:45.007Z,92.15
2022-09-05T05:44:33.573Z,94.70
2022-09-05T05:47:31.415Z,93.56
2022-09-05T05:50:40.796Z,90.18
2022-09-05T05:53:52.222Z,89.83
2022-09-05T05:56:46.788Z,89.72
2022-09-05T06:00:01.434Z,88.36
2022-09-05T06:03:24.708Z,88.55
2022-09-05T06:06:26.614Z,87.61
2022-09-05T06:14:48.231Z,85.72
2022-09-05T06:14:55.327Z,86.87
2022-09-05T06:16:39.278Z,86.47
2022-09-05T06:21:12.757Z,88.64
2022-09-05T06:23:36.791Z,87.79
2022-09-05T06:26:49.399Z,85.25
2022-09-05T06:29:47.198Z,83.58
2022-09-05T06:32:41.780Z,80.92
2022-09-05T06:36:04.436Z,81.69
2022-09-05T06:39:11.206Z,81.48
2022-09-05T06:42:42.251Z,80.39
2022-09-05T06:45:58.572Z,79.51
2022-09-05T06:49:30.886Z,78.20
2022-09-05T06:52:44.103Z,77.63
2022-09-05T06:55:40.344Z,77.71
2022-09-05T06:59:09.462Z,77.21
2022-09-05T07:02:07.639Z,78.58
2022-09-05T07:05:37.721Z,78.65
2022-09-05T07:08:36.088Z,77.70
2022-09-05T07:11:36.589Z,76.54
2022-09-05T07:14:27.556Z,71.97
2022-09-05T07:17:18.249Z,73.54
2022-09-05T07:20:22.056Z,74.28
2022-09-05T07:24:06.234Z,78.16
2022-09-05T07:26:53.926Z,73.61
2022-09-05T07:29:53.316Z,74.86
2022-09-05T07:32:58.578Z,71.61
2022-09-05T07:35:45.166Z,69.67
2022-09-05T07:38:52.031Z,67.41
2022-09-05T07:41:42.096Z,67.56
2022-09-05T07:44:40.420Z,64.88
2022-09-05T07:47:30.273Z,67.36
2022-09-05T07:52:47.422Z,65.02
2022-09-05T07:57:01.705Z,59.24
2022-09-05T07:57:22.302Z,56.98
2022-09-05T07:59:53.906Z,55.98
2022-09-05T08:02:50.255Z,53.90
2022-09-05T08:05:45.670Z,53.39
2022-09-05T08:09:00.424Z,51.63
2022-09-05T08:12:02.645Z,55.63
2022-09-05T08:15:10.234Z,52.04
2022-09-05T08:18:09.986Z,51.93
2022-09-05T08:21:27.167Z,49.42
2022-09-05T08:24:23.790Z,48.59
2022-09-05T08:27:20.639Z,47.92
2022-09-05T08:30:26.051Z,51.72
2022-09-05T08:33:17.529Z,47.29
2022-09-05T08:36:16.841Z,49.08
2022-09-05T08:39:04.894Z,49.26
2022-09-05T08:42:09.931Z,47.14
2022-09-05T08:46:36.346Z,47.34
2022-09-05T08:49:02.107Z,48.75
2022-09-05T08:52:14.045Z,46.34
2022-09-05T08:55:18.147Z,48.88
2022-09-05T08:58:27.138Z,47.38
2022-09-05T09:02:13.795Z,47.61
2022-09-05T09:05:01.157Z,47.22
2022-09-05T09:08:39.134Z,47.33
2022-09-05T09:11:36.620Z,44.70
2022-09-05T09:14:35.532Z,45.26
2022-09-05T09:17:42.968Z,43.37
2022-09-05T09:20:45.044Z,43.83
2022-09-05T09:23:51.420Z,44.13
2022-09-05T09:26:42.982Z,42.59
2022-09-05T09:29:34.463Z,42.16
2022-09-05T09:32:24.335Z,43.69
2022-09-05T09:35:17.369Z,41.42
2022-09-05T09:38:28.325Z,41.44
2022-09-05T09:41:17.252Z,39.92
2022-09-05T09:44:28.824Z,43.00
2022-09-05T09:47:22.280Z,44.65
2022-09-05T09:50:08.631Z,42.76
2022-09-05T09:53:05.518Z,42.09
2022-09-05T09:56:28.968Z,41.79
2022-09-05T09:59:49.678Z,40.99
2022-09-05T10:09:50.554Z,40.09
2022-09-05T10:10:35.081Z,39.21
2022-09-05T10:10:48.123Z,39.70
2022-09-05T10:13:51.745Z,40.42
2022-09-05T10:17:15.239Z,39.95
2022-09-05T10:20:24.045Z,41.00
2022-09-05T10:23:52.254Z,42.19
2022-09-05T10:26:53.762Z,43.14
2022-09-05T10:29:44.060Z,41.40
2022-09-05T10:35:07.572Z,39.14
2022-09-05T10:35:51.354Z,42.45
2022-09-05T10:38:43.254Z,37.87
2022-09-05T10:41:52.532Z,38.35
2022-09-05T10:44:45.709Z,40.87
2022-09-05T10:47:35.358Z,37.11
2022-09-05T10:50:30.432Z,37.42
2022-09-05T10:53:39.124Z,34.29
2022-09-05T10:56:34.235Z,33.99
2022-09-05T11:02:24.315Z,32.35
2022-09-05T11:02:43.870Z,35.53
2022-09-05T11:05:39.942Z,32.90
2022-09-05T11:09:06.428Z,32.18
2022-09-05T11:12:16.104Z,30.62
2022-09-05T11:15:08.827Z,32.88
2022-09-05T11:18:01.009Z,34.28
2022-09-05T11:21:20.024Z,36.23
2022-09-05T11:24:20.141Z,34.53
2022-09-05T11:27:40.507Z,38.01
2022-09-05T11:30:34.443Z,37.58
2022-09-05T11:39:51.928Z,33.02
2022-09-05T11:40:05.509Z,32.26
2022-09-05T11:40:29.053Z,36.10
2022-09-05T11:43:37.812Z,36.77
2022-09-05T11:46:34.276Z,32.68
2022-09-05T11:49:43.702Z,37.72
2022-09-05T11:52:55.650Z,35.41
2022-09-05T11:56:26.704Z,33.33
2022-09-05T11:59:34.961Z,34.29
2022-09-05T12:03:12.163Z,34.17
2022-09-05T12:06:57.217Z,32.58
2022-09-05T12:10:43.492Z,31.09
2022-09-05T12:13:35.871Z,36.91
2022-09-05T12:16:45.275Z,34.73
2022-09-05T12:19:41.865Z,34.44
2022-09-05T12:23:01.077Z,34.90
2022-09-05T12:27:41.163Z,33.97
2022-09-05T12:29:29.236Z,35.57
2022-09-05T12:33:58.037Z,37.47
2022-09-05T12:36:12.351Z,38.73
2022-09-05T12:40:28.808Z,40.36
2022-09-05T12:42:38.684Z,40.30
2022-09-05T12:48:53.265Z,35.71
2022-09-05T12:51:47.679Z,36.22
2022-09-05T12:54:42.018Z,35.43
2022-09-05T13:01:36.559Z,38.07
2022-09-05T13:03:01.186Z,37.59
2022-09-05T13:04:16.761Z,37.44
2022-09-05T13:07:10.779Z,34.32
2022-09-05T13:12:55.408Z,35.37
2022-09-05T13:15:01.415Z,36.54
2022-09-05T13:16:24.820Z,37.01
2022-09-05T13:19:21.568Z,39.08
2022-09-05T13:22:10.153Z,34.80
2022-09-05T13:25:13.127Z,34.55
2022-09-05T13:28:06.674Z,32.11
2022-09-05T13:34:12.692Z,33.79
2022-09-05T13:38:04.486Z,33.38
2022-09-05T13:38:14.752Z,33.10
2022-09-05T13:40:43.777Z,31.49
2022-09-05T13:43:36.487Z,31.76
2022-09-05T13:46:33.038Z,31.00
2022-09-05T13:49:32.183Z,32.40
2022-09-05T13:52:31.294Z,32.35
2022-09-05T13:56:00.507Z,32.16
2022-09-05T13:58:57.220Z,32.05
2022-09-05T14:02:25.815Z,32.55
2022-09-05T14:05:29.147Z,32.20
2022-09-05T14:08:18.079Z,32.45
2022-09-05T14:11:52.268Z,32.37
2022-09-05T14:18:28.016Z,32.33
2022-09-05T14:21:17.379Z,31.91
2022-09-05T14:24:16.986Z,31.90
2022-09-05T14:27:31.928Z,31.39
2022-09-05T14:35:23.474Z,30.92
2022-09-05T14:37:46.829Z,33.55
2022-09-05T14:37:53.651Z,32.78
2022-09-05T14:40:44.447Z,30.40
2022-09-05T14:43:33.872Z,31.55
2022-09-05T14:46:57.291Z,31.47
2022-09-05T14:50:06.142Z,30.40
2022-09-05T14:57:23.008Z,31.56
2022-09-05T15:02:54.992Z,31.14
2022-09-05T15:03:04.854Z,29.95
2022-09-05T15:05:51.640Z,29.18
2022-09-05T15:11:24.175Z,30.04
2022-09-05T15:12:23.843Z,30.84
2022-09-05T15:14:58.490Z,29.34
2022-09-05T15:17:49.013Z,32.47
2022-09-05T15:20:41.036Z,32.18
2022-09-05T15:23:27.278Z,30.15
2022-09-05T15:26:25.743Z,30.85
2022-09-05T15:29:14.717Z,30.38
2022-09-05T15:32:21.454Z,29.41
2022-09-05T15:35:07.936Z,29.84
2022-09-05T15:37:54.548Z,28.78
2022-09-05T15:40:40.762Z,28.92
2022-09-05T15:43:27.205Z,28.23
2022-09-05T15:46:13.669Z,28.69
2022-09-05T15:48:59.975Z,28.75
2022-09-05T15:51:49.767Z,29.23
2022-09-05T15:54:40.012Z,26.87
2022-09-05T15:57:28.897Z,28.05
2022-09-05T16:00:33.710Z,28.57
2022-09-05T16:05:44.747Z,27.74
2022-09-05T16:10:33.512Z,27.62
2022-09-05T16:10:50.281Z,27.53
2022-09-05T16:12:46.413Z,26.40
2022-09-05T16:22:36.230Z,26.95
2022-09-05T16:23:23.748Z,26.66
2022-09-05T16:23:35.082Z,27.15
2022-09-05T16:25:35.616Z,27.91
2022-09-05T16:28:28.548Z,27.65
2022-09-05T16:31:38.261Z,27.54
2022-09-05T16:34:44.234Z,28.02
2022-09-05T16:37:39.397Z,28.46
2022-09-05T16:40:35.954Z,28.96
2022-09-05T16:43:28.686Z,29.61
2022-09-05T16:46:30.602Z,29.69
2022-09-05T16:49:42.229Z,30.29
2022-09-05T16:52:53.655Z,30.97
2022-09-05T16:55:47.861Z,30.82
2022-09-05T16:58:40.434Z,32.22
2022-09-05T17:02:06.707Z,33.18
2022-09-05T17:05:13.384Z,34.60
2022-09-05T17:08:24.089Z,36.75
2022-09-05T17:11:29.900Z,37.57
2022-09-05T17:14:21.278Z,37.57
2022-09-05T17:17:36.508Z,37.42
2022-09-05T17:20:21.798Z,38.10
2022-09-05T17:29:20.234Z,40.03
2022-09-05T17:29:49.646Z,40.69
2022-09-05T17:33:40.308Z,40.42
2022-09-05T17:36:41.166Z,40.23
2022-09-05T17:39:58.658Z,41.25
2022-09-05T17:42:54.317Z,42.25
2022-09-05T17:45:45.680Z,42.82
2022-09-05T17:49:18.581Z,43.36
2022-09-05T17:52:18.201Z,42.77
2022-09-05T17:55:12.760Z,43.78
2022-09-05T17:58:21.803Z,45.63
2022-09-05T18:01:17.196Z,48.18
2022-09-05T18:04:16.557Z,49.90
2022-09-05T18:07:31.338Z,49.95
2022-09-05T18:10:27.598Z,50.37
2022-09-05T18:13:32.530Z,51.67
2022-09-05T18:16:43.793Z,50.05
2022-09-05T18:19:49.422Z,49.26
2022-09-05T18:23:26.394Z,49.51
2022-09-05T18:26:20.944Z,49.70
2022-09-05T18:29:58.428Z,51.17
2022-09-05T18:32:54.692Z,51.24
2022-09-05T18:35:57.884Z,52.24
2022-09-05T18:38:51.674Z,53.29
2022-09-05T18:41:41.815Z,54.24
2022-09-05T18:44:31.863Z,55.47
2022-09-05T18:47:33.748Z,53.65
2022-09-05T18:50:27.928Z,53.24
2022-09-05T18:53:25.385Z,54.33
2022-09-05T18:57:19.863Z,55.25
2022-09-05T19:00:03.573Z,55.30
2022-09-05T19:02:58.893Z,55.80
2022-09-05T19:06:34.984Z,56.46
2022-09-05T19:09:09.860Z,57.24
2022-09-05T19:12:33.518Z,56.71
2022-09-05T19:15:26.251Z,57.59
2022-09-05T19:18:40.537Z,57.99
2022-09-05T19:21:47.407Z,57.78
2022-09-05T19:24:46.321Z,58.60
2022-09-05T19:29:39.076Z,59.38
2022-09-05T19:36:49.567Z,63.56
2022-09-05T19:37:15.102Z,58.66
2022-09-05T19:44:00.505Z,60.19
2022-09-05T19:47:41.502Z,61.82
2022-09-05T19:50:28.575Z,63.27
2022-09-05T19:53:18.036Z,62.71
2022-09-05T19:56:05.156Z,61.40
2022-09-05T19:58:52.692Z,61.87
2022-09-05T20:01:43.146Z,61.59
2022-09-05T20:04:38.853Z,61.32
2022-09-05T20:07:27.818Z,61.13
2022-09-05T20:10:28.185Z,60.83
2022-09-05T20:13:21.942Z,60.80
2022-09-05T20:16:11.264Z,60.87
2022-09-05T20:18:57.759Z,60.46
2022-09-05T20:25:37.103Z,60.86
2022-09-05T20:28:37.954Z,62.39
2022-09-05T20:31:27.393Z,62.47
2022-09-05T20:34:36.966Z,62.11
2022-09-05T20:43:10.916Z,62.35
2022-09-05T20:43:24.420Z,61.28
2022-09-05T20:43:58.043Z,62.29
2022-09-05T20:52:57.206Z,63.18
2022-09-05T20:54:14.531Z,66.27
2022-09-05T20:54:20.750Z,62.60
2022-09-05T20:56:56.344Z,66.16
2022-09-05T20:59:43.327Z,64.75
2022-09-05T21:02:33.124Z,63.08
2022-09-05T21:05:27.722Z,67.30
2022-09-05T21:08:23.998Z,65.74
2022-09-05T21:11:10.623Z,63.68
2022-09-05T21:14:00.790Z,66.49
2022-09-05T21:16:57.635Z,66.76
2022-09-05T21:19:53.200Z,64.79
2022-09-05T21:22:43.654Z,64.70
2022-09-05T21:25:44.020Z,62.17
2022-09-05T21:28:37.087Z,64.46
2022-09-05T21:31:25.709Z,66.88
2022-09-05T21:34:16.210Z,67.97
2022-09-05T21:37:07.683Z,68.68
2022-09-05T21:39:58.760Z,68.01
2022-09-05T21:47:34.912Z,67.29
2022-09-05T21:47:47.587Z,65.99
2022-09-05T21:49:07.709Z,67.20
2022-09-05T21:51:54.152Z,68.37
2022-09-05T21:59:18.297Z,70.16
2022-09-05T21:59:19.732Z,68.22
2022-09-05T22:00:56.148Z,66.48
2022-09-05T22:03:44.619Z,65.95
2022-09-05T22:06:31.474Z,64.15
2022-09-05T22:09:19.927Z,64.28
2022-09-05T22:12:17.491Z,63.12
2022-09-05T22:15:28.153Z,63.02
2022-09-05T22:18:26.999Z,65.24
2022-09-05T22:21:32.239Z,63.17
2022-09-05T22:24:21.853Z,64.52
2022-09-05T22:27:12.738Z,62.98
2022-09-05T22:29:59.145Z,64.63
2022-09-05T22:32:45.587Z,66.01
2022-09-05T22:35:36.852Z,66.70
2022-09-05T22:38:23.096Z,67.27
2022-09-05T22:41:12.990Z,65.08
2022-09-05T22:44:00.609Z,67.67
2022-09-05T22:46:47.030Z,66.33
2022-09-05T22:49:34.177Z,65.28
2022-09-05T22:52:20.544Z,65.10
2022-09-05T22:55:07.396Z,67.73
2022-09-05T22:57:53.653Z,69.21
2022-09-05T23:00:41.684Z,69.38
2022-09-05T23:03:27.857Z,65.25
2022-09-05T23:06:14.237Z,69.14
2022-09-05T23:09:00.675Z,65.47
2022-09-05T23:11:47.029Z,63.93
2022-09-05T23:14:33.241Z,66.49
2022-09-05T23:17:19.694Z,66.48
2022-09-05T23:20:06.632Z,67.96
2022-09-05T23:22:52.842Z,65.71
2022-09-05T23:25:39.178Z,67.43
2022-09-05T23:28:25.586Z,68.67
2022-09-05T23:31:12.294Z,67.88
2022-09-05T23:33:58.956Z,68.19
2022-09-05T23:36:45.183Z,70.09
2022-09-05T23:39:31.610Z,67.96
2022-09-05T23:42:17.954Z,69.19
2022-09-05T23:45:04.460Z,69.50
2022-09-05T23:47:51.058Z,68.63
2022-09-05T23:50:37.910Z,67.95
2022-09-05T23:53:24.335Z,67.56
2022-09-05T23:56:11.192Z,67.77
2022-09-05T23:58:57.157Z,65.87
